Aérodrome :
LOGIN :

S'inscrire | Disclaimer

   EN    FR    IT 

 










Légende :    VFR   VFR Marginal   IFR   IFR Intensif   IFR Très Intensif
Visi : 
Plafond : 
>= 8 km
>= 3000ft
5 à 8 km
1000 à 3000 ft
1500m à 5 km
500 à 1000 ft
800 à 1500m
200 à 500 ft
< 800m
< 200 ft
Symboles :   Orages  Brouillard  Fortes neiges  Fortes précipitations  Vent > 20 kt
SIGMETs :   Divers  Orages  Givrage  Turbulence  Onde Orograph.  Cendres Volcan.






- Altitude de l'aérodrome : 19 ft
- Code IATA : BEB


EGPL - Benbecula

DERNIER METAR :
  • 270720Z 27013KT 9999 VCSH FEW006 SCT012CB BKN020 02/01 Q0984

METARs EXPIRÉS :
  • 270650Z AUTO 19004KT 160V230 4800 -SN FEW019/// SCT027/// BKN034/// 01/00 Q0984
  • 270620Z AUTO VRB03KT 9999 SCT005/// BKN016/// BKN023/// 01/00 Q0984
  • 270550Z AUTO 26010KT 6000 -SN BKN004/// OVC014/// 01/01 Q0984
  • 270520Z AUTO 23010KT 7000 -SN BKN005/// OVC018/// 02/01 Q0984
  • 270450Z AUTO 20009KT 6000 -SN BKN006/// BKN021/// OVC027/// 02/01 Q0984

TAF AMD TAF EGPL
Valide du 27 à 06h jusqu'au 27 à 15h UTC


270646Z 2706/2715 23009KT 9999 SCT020 BKN035
TEMPO 2706/2715 5000 SHRASN SHRAGS BKN012CB
PROB30
TEMPO 2706/2709 22015G25KT BKN004
BECMG 2709/2712 17012KT
TEMPO 2709/2715 18015G25KT
ATIS : +44 1870 604 818



MET'MAP, la Météo Aéronautique d'un coup d'oeil ! - Copyright ORBIFLY Décembre 2007 - Disclaimer

ORBIFLY MET'MAP TEAM :

Programmation & Développement : Alexandra Zaïnal
Sur une idée originale de : Baudouin d'Aumeries
Assistance à la programmation : Marc-Olivier Méhu
Soutien technique & logistique : Manuel Goepfert

Contact : metmap@orbifly.com




SOURCES & CREDITS :

   NOAA